sensor_id;sensor_type;location;lat;lon;timestamp;P1;durP1;ratioP1;P2;durP2;ratioP2
16600;SDS011;34891;48.164;11.572;2022-08-11T00:04:56;4.55;;;2.60;;
16600;SDS011;34891;48.164;11.572;2022-08-11T00:10:05;6.10;;;2.72;;
16600;SDS011;34891;48.164;11.572;2022-08-11T00:15:14;3.08;;;2.33;;
16600;SDS011;34891;48.164;11.572;2022-08-11T00:20:30;8.00;;;3.10;;
16600;SDS011;34891;48.164;11.572;2022-08-11T00:25:39;5.35;;;3.20;;
16600;SDS011;34891;48.164;11.572;2022-08-11T00:30:45;5.03;;;2.72;;
16600;SDS011;34891;48.164;11.572;2022-08-11T00:35:58;7.28;;;3.25;;
16600;SDS011;34891;48.164;11.572;2022-08-11T00:41:15;4.72;;;2.95;;
16600;SDS011;34891;48.164;11.572;2022-08-11T00:46:28;5.22;;;3.10;;
16600;SDS011;34891;48.164;11.572;2022-08-11T00:51:40;5.65;;;3.05;;
16600;SDS011;34891;48.164;11.572;2022-08-11T00:57:11;3.90;;;2.92;;
16600;SDS011;34891;48.164;11.572;2022-08-11T01:02:46;5.13;;;2.75;;
16600;SDS011;34891;48.164;11.572;2022-08-11T01:08:11;4.85;;;2.88;;
16600;SDS011;34891;48.164;11.572;2022-08-11T01:13:36;7.00;;;3.08;;
16600;SDS011;34891;48.164;11.572;2022-08-11T01:19:15;7.53;;;3.20;;
16600;SDS011;34891;48.164;11.572;2022-08-11T01:25:11;4.18;;;3.00;;
16600;SDS011;34891;48.164;11.572;2022-08-11T01:41:45;5.95;;;3.20;;
16600;SDS011;34891;48.164;11.572;2022-08-11T01:47:14;6.38;;;3.22;;
16600;SDS011;34891;48.164;11.572;2022-08-11T01:58:25;6.85;;;2.90;;
16600;SDS011;34891;48.164;11.572;2022-08-11T02:03:49;9.63;;;3.67;;
16600;SDS011;34891;48.164;11.572;2022-08-11T02:09:01;6.35;;;3.35;;
16600;SDS011;34891;48.164;11.572;2022-08-11T02:19:41;4.82;;;3.00;;
16600;SDS011;34891;48.164;11.572;2022-08-11T02:25:07;7.03;;;3.60;;
16600;SDS011;34891;48.164;11.572;2022-08-11T02:30:26;7.65;;;3.05;;
16600;SDS011;34891;48.164;11.572;2022-08-11T02:35:43;5.22;;;3.17;;
16600;SDS011;34891;48.164;11.572;2022-08-11T02:40:59;6.55;;;3.58;;
16600;SDS011;34891;48.164;11.572;2022-08-11T02:46:30;5.20;;;3.53;;
16600;SDS011;34891;48.164;11.572;2022-08-11T02:51:43;5.47;;;3.13;;
16600;SDS011;34891;48.164;11.572;2022-08-11T02:56:58;5.00;;;3.30;;
16600;SDS011;34891;48.164;11.572;2022-08-11T03:02:13;6.68;;;3.80;;
16600;SDS011;34891;48.164;11.572;2022-08-11T03:07:23;5.65;;;3.55;;
16600;SDS011;34891;48.164;11.572;2022-08-11T03:12:32;6.95;;;3.35;;
16600;SDS011;34891;48.164;11.572;2022-08-11T03:18:03;6.40;;;3.72;;
16600;SDS011;34891;48.164;11.572;2022-08-11T03:23:22;4.70;;;3.08;;
16600;SDS011;34891;48.164;11.572;2022-08-11T03:28:29;7.70;;;3.90;;
16600;SDS011;34891;48.164;11.572;2022-08-11T03:33:53;6.35;;;3.28;;
16600;SDS011;34891;48.164;11.572;2022-08-11T03:39:19;5.03;;;3.38;;
16600;SDS011;34891;48.164;11.572;2022-08-11T03:45:11;6.85;;;3.92;;
16600;SDS011;34891;48.164;11.572;2022-08-11T03:50:46;6.30;;;3.70;;
16600;SDS011;34891;48.164;11.572;2022-08-11T04:01:30;6.35;;;3.95;;
16600;SDS011;34891;48.164;11.572;2022-08-11T04:06:53;4.85;;;3.40;;
16600;SDS011;34891;48.164;11.572;2022-08-11T04:12:26;5.63;;;3.60;;
16600;SDS011;34891;48.164;11.572;2022-08-11T04:23:24;11.77;;;4.00;;
16600;SDS011;34891;48.164;11.572;2022-08-11T04:29:11;6.68;;;3.72;;
16600;SDS011;34891;48.164;11.572;2022-08-11T04:39:58;6.65;;;4.15;;
16600;SDS011;34891;48.164;11.572;2022-08-11T04:50:50;7.75;;;4.03;;
16600;SDS011;34891;48.164;11.572;2022-08-11T04:56:25;6.88;;;4.20;;
16600;SDS011;34891;48.164;11.572;2022-08-11T05:01:54;7.75;;;4.72;;
16600;SDS011;34891;48.164;11.572;2022-08-11T05:07:35;8.88;;;4.30;;
16600;SDS011;34891;48.164;11.572;2022-08-11T05:12:51;6.75;;;4.40;;
16600;SDS011;34891;48.164;11.572;2022-08-11T05:18:05;6.82;;;3.78;;
16600;SDS011;34891;48.164;11.572;2022-08-11T05:23:27;6.97;;;3.95;;
16600;SDS011;34891;48.164;11.572;2022-08-11T05:29:00;8.68;;;4.45;;
16600;SDS011;34891;48.164;11.572;2022-08-11T05:34:24;7.07;;;3.67;;
16600;SDS011;34891;48.164;11.572;2022-08-11T05:39:45;7.15;;;4.10;;
16600;SDS011;34891;48.164;11.572;2022-08-11T05:45:15;9.07;;;4.13;;
16600;SDS011;34891;48.164;11.572;2022-08-11T05:51:06;5.72;;;3.88;;
16600;SDS011;34891;48.164;11.572;2022-08-11T05:56:31;8.32;;;4.50;;
16600;SDS011;34891;48.164;11.572;2022-08-11T06:01:43;6.68;;;3.65;;
16600;SDS011;34891;48.164;11.572;2022-08-11T06:06:57;9.15;;;4.25;;
16600;SDS011;34891;48.164;11.572;2022-08-11T06:12:04;6.93;;;3.92;;
16600;SDS011;34891;48.164;11.572;2022-08-11T06:17:22;8.68;;;4.00;;
16600;SDS011;34891;48.164;11.572;2022-08-11T06:22:45;10.07;;;4.22;;
16600;SDS011;34891;48.164;11.572;2022-08-11T06:27:55;8.98;;;3.95;;
16600;SDS011;34891;48.164;11.572;2022-08-11T06:33:00;7.22;;;3.55;;
16600;SDS011;34891;48.164;11.572;2022-08-11T06:38:09;8.43;;;4.13;;
16600;SDS011;34891;48.164;11.572;2022-08-11T06:43:23;8.95;;;4.43;;
16600;SDS011;34891;48.164;11.572;2022-08-11T06:48:45;7.03;;;4.03;;
16600;SDS011;34891;48.164;11.572;2022-08-11T06:53:49;7.97;;;4.05;;
16600;SDS011;34891;48.164;11.572;2022-08-11T06:59:05;7.68;;;3.85;;
16600;SDS011;34891;48.164;11.572;2022-08-11T07:04:31;5.65;;;3.80;;
16600;SDS011;34891;48.164;11.572;2022-08-11T07:09:49;7.10;;;3.50;;
16600;SDS011;34891;48.164;11.572;2022-08-11T07:15:18;6.45;;;3.40;;
16600;SDS011;34891;48.164;11.572;2022-08-11T07:21:08;6.45;;;3.40;;
16600;SDS011;34891;48.164;11.572;2022-08-11T07:26:58;5.70;;;3.53;;
16600;SDS011;34891;48.164;11.572;2022-08-11T07:32:33;9.70;;;5.68;;
16600;SDS011;34891;48.164;11.572;2022-08-11T07:37:41;6.80;;;3.50;;
16600;SDS011;34891;48.164;11.572;2022-08-11T07:43:02;7.72;;;3.55;;
16600;SDS011;34891;48.164;11.572;2022-08-11T07:48:08;5.80;;;3.50;;
16600;SDS011;34891;48.164;11.572;2022-08-11T07:59:10;7.05;;;3.65;;
16600;SDS011;34891;48.164;11.572;2022-08-11T08:04:53;6.28;;;3.50;;
16600;SDS011;34891;48.164;11.572;2022-08-11T08:10:15;4.53;;;3.10;;
16600;SDS011;34891;48.164;11.572;2022-08-11T08:21:12;3.85;;;3.33;;
16600;SDS011;34891;48.164;11.572;2022-08-11T08:26:17;6.78;;;3.45;;
16600;SDS011;34891;48.164;11.572;2022-08-11T08:31:42;7.15;;;3.47;;
16600;SDS011;34891;48.164;11.572;2022-08-11T08:37:00;4.82;;;3.60;;
16600;SDS011;34891;48.164;11.572;2022-08-11T08:42:27;4.72;;;3.30;;
16600;SDS011;34891;48.164;11.572;2022-08-11T08:47:34;6.32;;;3.78;;
16600;SDS011;34891;48.164;11.572;2022-08-11T08:52:49;7.28;;;3.45;;
16600;SDS011;34891;48.164;11.572;2022-08-11T08:57:57;5.50;;;3.88;;
16600;SDS011;34891;48.164;11.572;2022-08-11T09:03:02;6.63;;;3.83;;
16600;SDS011;34891;48.164;11.572;2022-08-11T09:08:29;4.93;;;3.45;;
16600;SDS011;34891;48.164;11.572;2022-08-11T09:13:37;5.63;;;4.00;;
16600;SDS011;34891;48.164;11.572;2022-08-11T09:19:07;4.75;;;3.50;;
16600;SDS011;34891;48.164;11.572;2022-08-11T09:24:14;3.97;;;3.60;;
16600;SDS011;34891;48.164;11.572;2022-08-11T09:29:35;7.68;;;3.78;;
16600;SDS011;34891;48.164;11.572;2022-08-11T09:34:43;5.75;;;3.97;;
16600;SDS011;34891;48.164;11.572;2022-08-11T09:45:15;5.18;;;3.60;;
16600;SDS011;34891;48.164;11.572;2022-08-11T09:50:21;4.10;;;3.60;;
16600;SDS011;34891;48.164;11.572;2022-08-11T09:55:27;5.32;;;3.20;;
16600;SDS011;34891;48.164;11.572;2022-08-11T10:00:35;4.18;;;3.10;;
16600;SDS011;34891;48.164;11.572;2022-08-11T10:05:48;3.78;;;3.45;;
16600;SDS011;34891;48.164;11.572;2022-08-11T10:11:13;7.75;;;3.20;;
16600;SDS011;34891;48.164;11.572;2022-08-11T10:16:28;3.90;;;3.40;;
16600;SDS011;34891;48.164;11.572;2022-08-11T10:21:35;3.97;;;3.33;;
16600;SDS011;34891;48.164;11.572;2022-08-11T10:26:41;4.38;;;3.03;;
16600;SDS011;34891;48.164;11.572;2022-08-11T10:31:59;6.18;;;3.20;;
16600;SDS011;34891;48.164;11.572;2022-08-11T10:37:32;3.33;;;3.00;;
16600;SDS011;34891;48.164;11.572;2022-08-11T10:43:12;5.03;;;3.40;;
16600;SDS011;34891;48.164;11.572;2022-08-11T10:48:54;3.75;;;3.08;;
16600;SDS011;34891;48.164;11.572;2022-08-11T10:54:15;6.38;;;3.20;;
16600;SDS011;34891;48.164;11.572;2022-08-11T10:59:37;3.85;;;3.30;;
16600;SDS011;34891;48.164;11.572;2022-08-11T11:05:03;8.70;;;3.13;;
16600;SDS011;34891;48.164;11.572;2022-08-11T11:10:11;6.28;;;3.22;;
16600;SDS011;34891;48.164;11.572;2022-08-11T11:15:44;5.32;;;3.13;;
16600;SDS011;34891;48.164;11.572;2022-08-11T11:21:06;4.45;;;3.10;;
16600;SDS011;34891;48.164;11.572;2022-08-11T11:26:15;3.67;;;2.92;;
16600;SDS011;34891;48.164;11.572;2022-08-11T11:31:33;3.25;;;2.90;;
16600;SDS011;34891;48.164;11.572;2022-08-11T11:36:39;3.10;;;2.80;;
16600;SDS011;34891;48.164;11.572;2022-08-11T11:41:46;3.40;;;2.63;;
16600;SDS011;34891;48.164;11.572;2022-08-11T11:46:51;4.95;;;2.80;;
16600;SDS011;34891;48.164;11.572;2022-08-11T11:51:54;4.38;;;2.95;;
16600;SDS011;34891;48.164;11.572;2022-08-11T11:56:58;3.47;;;2.70;;
16600;SDS011;34891;48.164;11.572;2022-08-11T12:02:23;5.72;;;3.00;;
16600;SDS011;34891;48.164;11.572;2022-08-11T12:07:28;3.28;;;2.80;;
16600;SDS011;34891;48.164;11.572;2022-08-11T12:13:09;5.85;;;2.97;;
16600;SDS011;34891;48.164;11.572;2022-08-11T12:18:33;3.05;;;2.60;;
16600;SDS011;34891;48.164;11.572;2022-08-11T12:23:36;3.78;;;2.63;;
16600;SDS011;34891;48.164;11.572;2022-08-11T12:29:04;4.78;;;2.50;;
16600;SDS011;34891;48.164;11.572;2022-08-11T12:34:09;3.60;;;2.58;;
16600;SDS011;34891;48.164;11.572;2022-08-11T12:39:12;3.88;;;2.65;;
16600;SDS011;34891;48.164;11.572;2022-08-11T12:44:39;4.13;;;2.55;;
16600;SDS011;34891;48.164;11.572;2022-08-11T12:50:01;4.32;;;2.40;;
16600;SDS011;34891;48.164;11.572;2022-08-11T12:55:27;4.78;;;2.50;;
16600;SDS011;34891;48.164;11.572;2022-08-11T13:01:04;4.20;;;2.45;;
16600;SDS011;34891;48.164;11.572;2022-08-11T13:06:26;2.95;;;2.60;;
16600;SDS011;34891;48.164;11.572;2022-08-11T13:11:30;3.22;;;2.20;;
16600;SDS011;34891;48.164;11.572;2022-08-11T13:16:59;2.83;;;2.40;;
16600;SDS011;34891;48.164;11.572;2022-08-11T13:22:21;7.00;;;2.28;;
16600;SDS011;34891;48.164;11.572;2022-08-11T13:27:26;4.90;;;2.40;;
16600;SDS011;34891;48.164;11.572;2022-08-11T13:32:29;3.47;;;2.20;;
16600;SDS011;34891;48.164;11.572;2022-08-11T13:37:33;3.03;;;2.30;;
16600;SDS011;34891;48.164;11.572;2022-08-11T13:42:57;2.22;;;1.95;;
16600;SDS011;34891;48.164;11.572;2022-08-11T13:48:00;3.70;;;2.40;;
16600;SDS011;34891;48.164;11.572;2022-08-11T13:53:07;5.43;;;2.05;;
16600;SDS011;34891;48.164;11.572;2022-08-11T13:58:12;7.32;;;2.38;;
16600;SDS011;34891;48.164;11.572;2022-08-11T14:03:36;2.20;;;2.00;;
16600;SDS011;34891;48.164;11.572;2022-08-11T14:09:04;3.97;;;2.30;;
16600;SDS011;34891;48.164;11.572;2022-08-11T14:14:09;3.40;;;2.00;;
16600;SDS011;34891;48.164;11.572;2022-08-11T14:19:15;7.22;;;2.33;;
16600;SDS011;34891;48.164;11.572;2022-08-11T14:24:20;4.22;;;2.17;;
16600;SDS011;34891;48.164;11.572;2022-08-11T14:29:25;4.22;;;2.10;;
16600;SDS011;34891;48.164;11.572;2022-08-11T14:34:30;3.42;;;2.10;;
16600;SDS011;34891;48.164;11.572;2022-08-11T14:39:40;4.00;;;2.13;;
16600;SDS011;34891;48.164;11.572;2022-08-11T14:44:44;3.03;;;2.03;;
16600;SDS011;34891;48.164;11.572;2022-08-11T14:50:07;4.85;;;2.10;;
16600;SDS011;34891;48.164;11.572;2022-08-11T14:55:17;4.75;;;2.10;;
16600;SDS011;34891;48.164;11.572;2022-08-11T15:00:39;3.30;;;2.05;;
16600;SDS011;34891;48.164;11.572;2022-08-11T15:05:47;5.00;;;2.05;;
16600;SDS011;34891;48.164;11.572;2022-08-11T15:11:02;4.65;;;2.25;;
16600;SDS011;34891;48.164;11.572;2022-08-11T15:16:26;3.05;;;2.50;;
16600;SDS011;34891;48.164;11.572;2022-08-11T15:21:51;4.22;;;2.40;;
16600;SDS011;34891;48.164;11.572;2022-08-11T15:27:13;2.10;;;1.90;;
16600;SDS011;34891;48.164;11.572;2022-08-11T15:32:36;3.53;;;2.10;;
16600;SDS011;34891;48.164;11.572;2022-08-11T15:38:02;2.60;;;2.13;;
16600;SDS011;34891;48.164;11.572;2022-08-11T15:43:09;3.85;;;2.25;;
16600;SDS011;34891;48.164;11.572;2022-08-11T15:48:36;2.92;;;1.80;;
16600;SDS011;34891;48.164;11.572;2022-08-11T15:53:42;3.03;;;2.10;;
16600;SDS011;34891;48.164;11.572;2022-08-11T15:59:00;3.55;;;1.88;;
16600;SDS011;34891;48.164;11.572;2022-08-11T16:04:41;2.65;;;1.90;;
16600;SDS011;34891;48.164;11.572;2022-08-11T16:09:46;3.47;;;2.20;;
16600;SDS011;34891;48.164;11.572;2022-08-11T16:14:57;4.53;;;2.10;;
16600;SDS011;34891;48.164;11.572;2022-08-11T16:20:22;2.97;;;2.10;;
16600;SDS011;34891;48.164;11.572;2022-08-11T16:25:27;3.45;;;2.10;;
16600;SDS011;34891;48.164;11.572;2022-08-11T16:30:52;3.17;;;1.88;;
16600;SDS011;34891;48.164;11.572;2022-08-11T16:35:57;2.65;;;1.88;;
16600;SDS011;34891;48.164;11.572;2022-08-11T16:41:18;2.22;;;1.85;;
16600;SDS011;34891;48.164;11.572;2022-08-11T16:46:44;3.40;;;2.08;;
16600;SDS011;34891;48.164;11.572;2022-08-11T16:52:02;3.53;;;2.05;;
16600;SDS011;34891;48.164;11.572;2022-08-11T16:57:06;4.60;;;2.30;;
16600;SDS011;34891;48.164;11.572;2022-08-11T17:02:31;4.95;;;2.20;;
16600;SDS011;34891;48.164;11.572;2022-08-11T17:07:51;3.08;;;2.00;;
16600;SDS011;34891;48.164;11.572;2022-08-11T17:13:27;4.00;;;2.40;;
16600;SDS011;34891;48.164;11.572;2022-08-11T17:18:32;4.50;;;2.08;;
16600;SDS011;34891;48.164;11.572;2022-08-11T17:23:46;3.42;;;2.17;;
16600;SDS011;34891;48.164;11.572;2022-08-11T17:28:53;3.90;;;1.95;;
16600;SDS011;34891;48.164;11.572;2022-08-11T17:33:59;6.22;;;1.90;;
16600;SDS011;34891;48.164;11.572;2022-08-11T17:39:22;2.60;;;1.95;;
16600;SDS011;34891;48.164;11.572;2022-08-11T17:44:29;4.35;;;1.90;;
16600;SDS011;34891;48.164;11.572;2022-08-11T17:49:52;4.75;;;1.80;;
16600;SDS011;34891;48.164;11.572;2022-08-11T17:55:09;4.90;;;3.17;;
16600;SDS011;34891;48.164;11.572;2022-08-11T18:00:49;3.40;;;1.88;;
16600;SDS011;34891;48.164;11.572;2022-08-11T18:05:54;2.67;;;1.90;;
16600;SDS011;34891;48.164;11.572;2022-08-11T18:10:57;4.55;;;2.00;;
16600;SDS011;34891;48.164;11.572;2022-08-11T18:16:39;2.80;;;1.80;;
16600;SDS011;34891;48.164;11.572;2022-08-11T18:22:08;3.55;;;1.73;;
16600;SDS011;34891;48.164;11.572;2022-08-11T18:27:29;4.68;;;1.95;;
16600;SDS011;34891;48.164;11.572;2022-08-11T18:32:51;4.20;;;1.92;;
16600;SDS011;34891;48.164;11.572;2022-08-11T18:38:34;3.97;;;2.00;;
16600;SDS011;34891;48.164;11.572;2022-08-11T18:43:57;2.95;;;2.03;;
16600;SDS011;34891;48.164;11.572;2022-08-11T18:49:20;3.42;;;1.70;;
16600;SDS011;34891;48.164;11.572;2022-08-11T18:55:03;3.90;;;1.83;;
16600;SDS011;34891;48.164;11.572;2022-08-11T19:00:24;6.57;;;2.00;;
16600;SDS011;34891;48.164;11.572;2022-08-11T19:05:45;3.35;;;2.10;;
16600;SDS011;34891;48.164;11.572;2022-08-11T19:11:28;7.97;;;2.00;;
16600;SDS011;34891;48.164;11.572;2022-08-11T19:16:50;2.33;;;1.80;;
16600;SDS011;34891;48.164;11.572;2022-08-11T19:22:11;3.47;;;1.70;;
16600;SDS011;34891;48.164;11.572;2022-08-11T19:27:32;3.63;;;1.80;;
16600;SDS011;34891;48.164;11.572;2022-08-11T19:32:54;2.60;;;1.95;;
16600;SDS011;34891;48.164;11.572;2022-08-11T19:38:15;2.90;;;1.60;;
16600;SDS011;34891;48.164;11.572;2022-08-11T19:43:37;3.65;;;1.83;;
16600;SDS011;34891;48.164;11.572;2022-08-11T19:48:58;4.88;;;2.22;;
16600;SDS011;34891;48.164;11.572;2022-08-11T19:54:19;4.13;;;2.20;;
16600;SDS011;34891;48.164;11.572;2022-08-11T19:59:43;5.03;;;2.00;;
16600;SDS011;34891;48.164;11.572;2022-08-11T20:05:05;5.65;;;2.40;;
16600;SDS011;34891;48.164;11.572;2022-08-11T20:10:26;5.68;;;2.17;;
16600;SDS011;34891;48.164;11.572;2022-08-11T20:15:50;2.88;;;2.10;;
16600;SDS011;34891;48.164;11.572;2022-08-11T20:21:12;3.42;;;2.10;;
16600;SDS011;34891;48.164;11.572;2022-08-11T20:26:34;3.95;;;2.38;;
16600;SDS011;34891;48.164;11.572;2022-08-11T20:31:56;8.13;;;2.42;;
16600;SDS011;34891;48.164;11.572;2022-08-11T20:37:16;5.95;;;2.53;;
16600;SDS011;34891;48.164;11.572;2022-08-11T20:42:37;8.05;;;2.47;;
16600;SDS011;34891;48.164;11.572;2022-08-11T20:48:00;3.55;;;2.15;;
16600;SDS011;34891;48.164;11.572;2022-08-11T20:53:25;3.30;;;2.00;;
16600;SDS011;34891;48.164;11.572;2022-08-11T20:58:46;5.72;;;2.05;;
16600;SDS011;34891;48.164;11.572;2022-08-11T21:04:20;4.45;;;2.42;;
16600;SDS011;34891;48.164;11.572;2022-08-11T21:09:55;5.95;;;2.58;;
16600;SDS011;34891;48.164;11.572;2022-08-11T21:15:24;2.90;;;2.05;;
16600;SDS011;34891;48.164;11.572;2022-08-11T21:21:10;4.40;;;2.17;;
16600;SDS011;34891;48.164;11.572;2022-08-11T21:26:46;5.78;;;1.85;;
16600;SDS011;34891;48.164;11.572;2022-08-11T21:32:07;5.00;;;2.03;;
16600;SDS011;34891;48.164;11.572;2022-08-11T21:37:30;3.58;;;2.05;;
16600;SDS011;34891;48.164;11.572;2022-08-11T21:42:53;3.22;;;1.92;;
16600;SDS011;34891;48.164;11.572;2022-08-11T21:48:14;3.88;;;2.35;;
16600;SDS011;34891;48.164;11.572;2022-08-11T21:53:37;5.13;;;2.25;;
16600;SDS011;34891;48.164;11.572;2022-08-11T21:58:58;5.05;;;2.30;;
16600;SDS011;34891;48.164;11.572;2022-08-11T22:04:19;5.43;;;2.70;;
16600;SDS011;34891;48.164;11.572;2022-08-11T22:09:42;7.03;;;2.50;;
16600;SDS011;34891;48.164;11.572;2022-08-11T22:15:23;4.55;;;2.35;;
16600;SDS011;34891;48.164;11.572;2022-08-11T22:20:43;5.85;;;1.95;;
16600;SDS011;34891;48.164;11.572;2022-08-11T22:26:06;4.18;;;2.28;;
16600;SDS011;34891;48.164;11.572;2022-08-11T22:31:26;2.42;;;2.00;;
16600;SDS011;34891;48.164;11.572;2022-08-11T22:36:48;5.18;;;2.42;;
16600;SDS011;34891;48.164;11.572;2022-08-11T22:42:29;3.30;;;2.20;;
16600;SDS011;34891;48.164;11.572;2022-08-11T22:47:52;7.82;;;2.20;;
16600;SDS011;34891;48.164;11.572;2022-08-11T22:53:14;4.47;;;2.40;;
16600;SDS011;34891;48.164;11.572;2022-08-11T22:58:57;4.22;;;2.42;;
16600;SDS011;34891;48.164;11.572;2022-08-11T23:04:18;3.92;;;2.05;;
16600;SDS011;34891;48.164;11.572;2022-08-11T23:09:38;4.68;;;2.33;;
16600;SDS011;34891;48.164;11.572;2022-08-11T23:15:00;3.53;;;2.40;;
16600;SDS011;34891;48.164;11.572;2022-08-11T23:20:21;4.88;;;2.30;;
16600;SDS011;34891;48.164;11.572;2022-08-11T23:25:53;5.43;;;2.40;;
16600;SDS011;34891;48.164;11.572;2022-08-11T23:31:16;5.43;;;2.22;;
16600;SDS011;34891;48.164;11.572;2022-08-11T23:36:51;5.47;;;2.30;;
16600;SDS011;34891;48.164;11.572;2022-08-11T23:42:12;5.78;;;2.55;;
16600;SDS011;34891;48.164;11.572;2022-08-11T23:47:39;4.13;;;2.08;;
16600;SDS011;34891;48.164;11.572;2022-08-11T23:53:01;2.42;;;2.15;;
16600;SDS011;34891;48.164;11.572;2022-08-11T23:58:21;4.75;;;2.40;;
